createdAt,value
2016-10-10T00:00:46.221Z,0
2016-10-10T00:01:46.281Z,0
2016-10-10T00:02:46.327Z,0
2016-10-10T00:03:46.370Z,0
2016-10-10T00:04:46.422Z,0
2016-10-10T00:05:46.500Z,0
2016-10-10T00:06:46.548Z,0
2016-10-10T00:07:46.605Z,0
2016-10-10T00:08:46.663Z,0
2016-10-10T00:09:46.723Z,0
2016-10-10T00:10:46.769Z,0
2016-10-10T00:11:46.844Z,0
2016-10-10T00:12:46.887Z,0
2016-10-10T00:13:46.947Z,0
2016-10-10T00:14:47.013Z,0
2016-10-10T00:15:47.059Z,0
2016-10-10T00:16:47.121Z,0
2016-10-10T00:17:47.163Z,0
2016-10-10T00:18:47.223Z,0
2016-10-10T00:19:47.260Z,0
2016-10-10T00:20:47.334Z,0
2016-10-10T00:21:47.413Z,0
2016-10-10T00:22:47.431Z,0
2016-10-10T00:23:47.498Z,0
2016-10-10T00:24:47.548Z,0
2016-10-10T00:25:47.593Z,0
2016-10-10T00:26:47.676Z,0
2016-10-10T00:27:47.727Z,0
2016-10-10T00:28:47.779Z,0
2016-10-10T00:29:47.844Z,0
2016-10-10T00:30:47.883Z,0
2016-10-10T00:31:47.927Z,0
2016-10-10T00:32:48.009Z,0
2016-10-10T00:33:48.070Z,0
2016-10-10T00:34:48.110Z,0
2016-10-10T00:35:48.172Z,0
2016-10-10T00:36:48.227Z,0
2016-10-10T00:37:48.278Z,0
2016-10-10T00:38:48.321Z,0
2016-10-10T00:39:48.402Z,0
2016-10-10T00:40:48.446Z,0
2016-10-10T00:41:48.494Z,0
2016-10-10T00:42:48.555Z,0
2016-10-10T00:43:48.623Z,0
2016-10-10T00:44:48.675Z,0
2016-10-10T00:45:48.719Z,0
2016-10-10T00:46:48.774Z,0
2016-10-10T00:47:48.850Z,0
2016-10-10T00:48:48.889Z,0
2016-10-10T00:49:48.960Z,0
2016-10-10T00:50:49.012Z,0
2016-10-10T00:51:49.063Z,0
2016-10-10T00:52:49.110Z,0
2016-10-10T00:53:49.157Z,0
2016-10-10T00:54:49.228Z,0
2016-10-10T00:55:49.302Z,0
2016-10-10T00:56:49.346Z,0
2016-10-10T00:57:49.394Z,0
2016-10-10T00:58:49.445Z,0
2016-10-10T00:59:49.505Z,0
2016-10-10T01:00:49.548Z,0
2016-10-10T01:01:49.637Z,0
2016-10-10T01:02:49.675Z,0
2016-10-10T01:03:49.710Z,0
2016-10-10T01:04:49.759Z,0
2016-10-10T01:05:49.833Z,0
2016-10-10T01:06:49.909Z,0
2016-10-10T01:07:49.951Z,0
2016-10-10T01:08:50.009Z,0
2016-10-10T01:09:50.072Z,0
2016-10-10T01:10:50.114Z,0
2016-10-10T01:11:50.190Z,0
2016-10-10T01:12:50.232Z,0
2016-10-10T01:13:50.504Z,0
2016-10-10T01:14:50.363Z,0
2016-10-10T01:15:50.371Z,0
2016-10-10T01:16:50.450Z,0
2016-10-10T01:17:50.529Z,0
2016-10-10T01:18:50.535Z,0
2016-10-10T01:19:50.607Z,0
2016-10-10T01:20:50.682Z,0
2016-10-10T01:21:50.721Z,0
2016-10-10T01:22:50.759Z,0
2016-10-10T01:23:50.829Z,0
2016-10-10T01:24:50.905Z,0
2016-10-10T01:25:50.950Z,0
2016-10-10T01:26:51.003Z,0
2016-10-10T01:27:51.081Z,0
2016-10-10T01:28:51.115Z,0
2016-10-10T01:29:51.481Z,0
2016-10-10T01:30:51.254Z,0
2016-10-10T01:31:51.277Z,0
2016-10-10T01:32:51.345Z,0
2016-10-10T01:33:51.420Z,0
2016-10-10T01:34:51.463Z,0
2016-10-10T01:35:51.492Z,0
2016-10-10T01:36:51.560Z,0
2016-10-10T01:37:51.628Z,0
2016-10-10T01:38:51.686Z,0
2016-10-10T01:39:51.705Z,0
2016-10-10T01:40:51.778Z,0
2016-10-10T01:41:52.039Z,0
2016-10-10T01:42:52.094Z,0
2016-10-10T01:43:51.946Z,0
2016-10-10T01:44:52.007Z,0
2016-10-10T01:45:52.077Z,0
2016-10-10T01:46:52.116Z,0
2016-10-10T01:47:52.190Z,0
2016-10-10T01:48:52.249Z,0
2016-10-10T01:49:52.280Z,0
2016-10-10T01:50:52.356Z,0
2016-10-10T01:51:52.389Z,0
2016-10-10T01:52:52.469Z,0
2016-10-10T01:53:52.512Z,0
2016-10-10T01:54:52.573Z,0
2016-10-10T01:55:52.636Z,0
2016-10-10T01:56:52.667Z,0
2016-10-10T01:57:52.753Z,0
2016-10-10T01:58:52.792Z,0
2016-10-10T01:59:52.834Z,0
2016-10-10T02:00:52.903Z,0
2016-10-10T02:01:52.964Z,0
2016-10-10T02:02:53.012Z,0
2016-10-10T02:03:53.086Z,0
2016-10-10T02:04:53.145Z,0
2016-10-10T02:05:53.168Z,0
2016-10-10T02:06:53.233Z,0
2016-10-10T02:07:53.299Z,0
2016-10-10T02:08:53.539Z,0
2016-10-10T02:09:53.613Z,0
2016-10-10T02:10:53.455Z,0
2016-10-10T02:11:53.526Z,0
2016-10-10T02:12:53.573Z,0
2016-10-10T02:13:53.635Z,0
2016-10-10T02:14:53.657Z,0
2016-10-10T02:15:53.761Z,0
2016-10-10T02:16:53.794Z,0
2016-10-10T02:17:53.847Z,0
2016-10-10T02:18:53.876Z,0
2016-10-10T02:19:53.958Z,0
2016-10-10T02:20:54.045Z,0
2016-10-10T02:21:54.064Z,0
2016-10-10T02:22:54.132Z,0
2016-10-10T02:23:54.188Z,0
2016-10-10T02:24:54.418Z,0
2016-10-10T02:25:54.273Z,0
2016-10-10T02:26:54.377Z,0
2016-10-10T02:27:54.388Z,0
2016-10-10T02:28:54.462Z,0
2016-10-10T02:29:54.623Z,0
2016-10-10T02:30:54.882Z,0
2016-10-10T02:31:54.621Z,0
2016-10-10T02:32:54.698Z,0
2016-10-10T02:33:54.733Z,0
2016-10-10T02:34:54.783Z,0
2016-10-10T02:35:54.873Z,0
2016-10-10T02:36:55.098Z,0
2016-10-10T02:37:54.953Z,0
2016-10-10T02:38:55.009Z,0
2016-10-10T02:39:55.083Z,0
2016-10-10T02:40:55.122Z,0
2016-10-10T02:41:55.191Z,0
2016-10-10T02:42:55.233Z,0
2016-10-10T02:43:55.310Z,0
2016-10-10T02:44:55.365Z,0
2016-10-10T02:45:55.372Z,0
2016-10-10T02:46:55.467Z,0
2016-10-10T02:47:55.520Z,0
2016-10-10T02:48:55.563Z,0
2016-10-10T02:49:55.614Z,0
2016-10-10T02:50:55.700Z,0
2016-10-10T02:51:55.723Z,0
2016-10-10T02:52:55.776Z,0
2016-10-10T02:53:55.834Z,0
2016-10-10T02:54:55.928Z,0
2016-10-10T02:55:55.951Z,0
2016-10-10T02:56:56.010Z,0
2016-10-10T02:57:56.360Z,0
2016-10-10T02:58:56.135Z,0
2016-10-10T02:59:56.207Z,0
2016-10-10T03:00:56.245Z,0
2016-10-10T03:01:56.305Z,0
2016-10-10T03:02:56.328Z,0
2016-10-10T03:03:56.421Z,0
2016-10-10T03:04:56.453Z,0
2016-10-10T03:06:11.440Z,0
2016-10-10T03:06:56.572Z,0
2016-10-10T03:07:56.665Z,0
2016-10-10T03:08:56.680Z,0
2016-10-10T03:09:56.755Z,0
2016-10-10T03:10:56.787Z,0
2016-10-10T03:11:56.851Z,0
2016-10-10T03:12:56.930Z,0
2016-10-10T03:13:57.009Z,0
2016-10-10T03:14:57.036Z,0
2016-10-10T03:15:57.048Z,0
2016-10-10T03:16:57.116Z,0
2016-10-10T03:17:57.180Z,0
2016-10-10T03:18:57.236Z,0
2016-10-10T03:19:57.273Z,0
2016-10-10T03:20:57.346Z,0
2016-10-10T03:21:57.409Z,0
2016-10-10T03:22:57.437Z,0
2016-10-10T03:23:57.521Z,0
2016-10-10T03:24:57.574Z,0
2016-10-10T03:25:57.639Z,0
2016-10-10T03:26:57.667Z,0
2016-10-10T03:27:57.728Z,0
2016-10-10T03:28:57.784Z,0
2016-10-10T03:29:57.832Z,0
2016-10-10T03:30:57.903Z,0
2016-10-10T03:31:57.940Z,0
2016-10-10T03:32:58.228Z,0
2016-10-10T03:33:58.263Z,0
2016-10-10T03:34:58.113Z,0
2016-10-10T03:35:58.381Z,0
2016-10-10T03:36:58.255Z,0
2016-10-10T03:37:58.500Z,0
2016-10-10T03:38:58.539Z,0
2016-10-10T03:39:58.413Z,0
2016-10-10T03:40:58.769Z,0
2016-10-10T03:41:58.498Z,0
2016-10-10T03:42:58.582Z,0
2016-10-10T03:43:58.634Z,0
2016-10-10T03:44:58.691Z,0
2016-10-10T03:45:58.757Z,0
2016-10-10T03:46:58.793Z,0
2016-10-10T03:47:59.459Z,0
2016-10-10T03:48:58.927Z,0
2016-10-10T03:49:58.938Z,0
2016-10-10T03:50:59.005Z,0
2016-10-10T03:51:59.072Z,0
2016-10-10T03:52:59.100Z,0
2016-10-10T03:53:59.208Z,0
2016-10-10T03:54:59.240Z,0
2016-10-10T03:55:59.274Z,0
2016-10-10T03:56:59.371Z,0
2016-10-10T03:57:59.417Z,0
2016-10-10T03:58:59.469Z,0
2016-10-10T03:59:59.529Z,0
2016-10-10T04:00:59.578Z,0
2016-10-10T04:01:59.931Z,0
2016-10-10T04:02:59.680Z,0
2016-10-10T04:03:59.743Z,0
2016-10-10T04:04:59.770Z,0
2016-10-10T04:05:59.826Z,0
2016-10-10T04:06:59.922Z,0
2016-10-10T04:07:59.949Z,0
2016-10-10T04:09:00.006Z,0
2016-10-10T04:10:00.083Z,0
2016-10-10T04:11:00.126Z,0
2016-10-10T04:12:00.175Z,0
2016-10-10T04:13:00.228Z,0
2016-10-10T04:14:00.292Z,0
2016-10-10T04:15:00.659Z,0
2016-10-10T04:16:00.419Z,0
2016-10-10T04:17:00.442Z,0
2016-10-10T04:18:00.506Z,0
2016-10-10T04:19:00.568Z,0
2016-10-10T04:20:00.643Z,0
2016-10-10T04:21:00.699Z,0
2016-10-10T04:22:00.742Z,0
2016-10-10T04:23:00.766Z,0
2016-10-10T04:24:00.868Z,0
2016-10-10T04:25:00.899Z,0
2016-10-10T04:26:00.952Z,0
2016-10-10T04:27:01.019Z,0
2016-10-10T04:28:01.077Z,0
2016-10-10T04:29:01.341Z,0
2016-10-10T04:30:01.171Z,0
2016-10-10T04:31:01.451Z,0
2016-10-10T04:32:01.281Z,0
2016-10-10T04:33:01.360Z,0
2016-10-10T04:34:01.404Z,0
2016-10-10T04:35:01.485Z,0
2016-10-10T04:36:01.515Z,0
2016-10-10T04:37:01.574Z,0
2016-10-10T04:38:01.627Z,0
2016-10-10T04:39:01.692Z,0
2016-10-10T04:40:01.735Z,0
2016-10-10T04:41:01.802Z,0
2016-10-10T04:42:01.836Z,0
2016-10-10T04:43:01.892Z,0
2016-10-10T04:44:01.965Z,0
2016-10-10T04:45:02.032Z,0
2016-10-10T04:46:02.045Z,0
2016-10-10T04:47:02.123Z,0
2016-10-10T04:48:02.176Z,0
2016-10-10T04:49:02.232Z,0
2016-10-10T04:50:02.282Z,0
2016-10-10T04:51:02.330Z,0
2016-10-10T04:52:02.413Z,0
2016-10-10T04:53:02.483Z,0
2016-10-10T04:54:02.515Z,0
2016-10-10T04:55:02.565Z,0
2016-10-10T04:56:02.634Z,0
2016-10-10T04:57:02.676Z,0
2016-10-10T04:58:02.729Z,0
2016-10-10T04:59:02.804Z,0
2016-10-10T05:00:02.876Z,0
2016-10-10T05:01:02.875Z,0
2016-10-10T05:02:02.948Z,0
2016-10-10T05:03:02.987Z,0
2016-10-10T05:04:03.091Z,0
2016-10-10T05:05:03.113Z,0
2016-10-10T05:06:03.167Z,0
2016-10-10T05:07:03.221Z,0
2016-10-10T05:08:03.317Z,0
2016-10-10T05:09:03.360Z,0
2016-10-10T05:10:03.387Z,0
2016-10-10T05:11:03.427Z,0
2016-10-10T05:12:03.815Z,0
2016-10-10T05:13:03.772Z,0
2016-10-10T05:14:03.642Z,0
2016-10-10T05:15:03.665Z,0
2016-10-10T05:16:03.728Z,0
2016-10-10T05:17:03.783Z,0
2016-10-10T05:18:03.827Z,0
2016-10-10T05:19:03.908Z,0
2016-10-10T05:20:03.940Z,0
2016-10-10T05:21:04.019Z,0
2016-10-10T05:22:04.058Z,0
2016-10-10T05:23:04.104Z,0
2016-10-10T05:24:04.146Z,0
2016-10-10T05:25:04.237Z,0
2016-10-10T05:26:04.295Z,0
2016-10-10T05:27:04.346Z,0
2016-10-10T05:28:04.405Z,0
2016-10-10T05:29:04.462Z,0
2016-10-10T05:30:04.502Z,0
2016-10-10T05:31:04.548Z,0
2016-10-10T05:32:04.625Z,0
2016-10-10T05:33:04.700Z,0
2016-10-10T05:34:04.706Z,0
2016-10-10T05:35:04.789Z,0
2016-10-10T05:36:05.153Z,0
2016-10-10T05:37:04.868Z,0
2016-10-10T05:38:04.944Z,0
2016-10-10T05:39:05.005Z,0
2016-10-10T05:40:05.070Z,0
2016-10-10T05:41:05.096Z,0
2016-10-10T05:42:05.207Z,0
2016-10-10T05:43:05.201Z,0
2016-10-10T05:44:05.291Z,0
2016-10-10T05:45:05.340Z,0
2016-10-10T05:46:05.412Z,0
2016-10-10T05:47:05.452Z,0
2016-10-10T05:48:05.523Z,0
2016-10-10T05:49:05.554Z,0
2016-10-10T05:50:05.623Z,0
2016-10-10T05:51:05.659Z,0
2016-10-10T05:52:05.718Z,0
2016-10-10T05:53:05.772Z,0
2016-10-10T05:54:05.835Z,0
2016-10-10T05:55:05.873Z,0
2016-10-10T05:56:05.950Z,0
2016-10-10T05:57:06.003Z,0
2016-10-10T05:58:06.061Z,0
2016-10-10T05:59:06.119Z,0
2016-10-10T06:00:06.180Z,0
2016-10-10T06:01:06.238Z,0
2016-10-10T06:02:06.262Z,0
2016-10-10T06:03:06.330Z,0
2016-10-10T06:04:06.384Z,0
2016-10-10T06:05:06.444Z,0
2016-10-10T06:06:06.531Z,5
2016-10-10T06:07:06.573Z,5
2016-10-10T06:08:06.608Z,5
2016-10-10T06:09:06.678Z,5
2016-10-10T06:10:06.718Z,5
2016-10-10T06:11:06.789Z,5
2016-10-10T06:12:06.837Z,5
2016-10-10T06:13:06.887Z,5
2016-10-10T06:14:06.975Z,5
2016-10-10T06:15:06.996Z,5
2016-10-10T06:16:07.057Z,5
2016-10-10T06:17:07.106Z,5
2016-10-10T06:18:07.170Z,5
2016-10-10T06:19:07.264Z,5
2016-10-10T06:20:07.310Z,5
2016-10-10T06:21:07.353Z,5
2016-10-10T06:22:07.382Z,5
2016-10-10T06:23:07.463Z,5
2016-10-10T06:24:07.511Z,5
2016-10-10T06:25:07.551Z,5
2016-10-10T06:26:07.625Z,5
2016-10-10T06:27:07.661Z,5
2016-10-10T06:28:07.724Z,5
2016-10-10T06:29:07.785Z,5
2016-10-10T06:30:07.855Z,5
2016-10-10T06:31:07.870Z,5
2016-10-10T06:32:07.956Z,5
2016-10-10T06:33:08.006Z,5
2016-10-10T06:34:08.043Z,10
2016-10-10T06:35:08.116Z,10
2016-10-10T06:36:08.176Z,10
2016-10-10T06:37:08.218Z,10
2016-10-10T06:38:08.279Z,10
2016-10-10T06:39:08.348Z,10
2016-10-10T06:40:08.401Z,10
2016-10-10T06:41:08.453Z,10
2016-10-10T06:42:08.496Z,10
2016-10-10T06:43:08.570Z,10
2016-10-10T06:44:08.611Z,10
2016-10-10T06:45:08.682Z,10
2016-10-10T06:46:08.732Z,10
2016-10-10T06:47:08.790Z,10
2016-10-10T06:48:08.809Z,10
2016-10-10T06:49:08.905Z,10
2016-10-10T06:50:08.965Z,10
2016-10-10T06:51:08.993Z,10
2016-10-10T06:52:09.052Z,10
2016-10-10T06:53:09.139Z,10
2016-10-10T06:54:09.186Z,10
2016-10-10T06:55:09.438Z,15
2016-10-10T06:56:09.278Z,15
2016-10-10T06:57:09.334Z,15
2016-10-10T06:58:09.379Z,15
2016-10-10T06:59:09.485Z,15
2016-10-10T07:00:09.528Z,15
2016-10-10T07:01:09.557Z,15
2016-10-10T07:02:09.611Z,15
2016-10-10T07:03:09.666Z,15
2016-10-10T07:04:09.719Z,15
2016-10-10T07:05:09.993Z,15
2016-10-10T07:06:09.819Z,15
2016-10-10T07:07:09.916Z,15
2016-10-10T07:08:09.970Z,15
2016-10-10T07:09:10.021Z,15
2016-10-10T07:10:10.068Z,15
2016-10-10T07:11:10.133Z,15
2016-10-10T07:12:10.168Z,15
2016-10-10T07:13:10.209Z,20
2016-10-10T07:14:10.286Z,20
2016-10-10T07:15:10.325Z,20
2016-10-10T07:16:10.412Z,20
2016-10-10T07:17:10.443Z,20
2016-10-10T07:18:10.508Z,20
2016-10-10T07:19:10.570Z,20
2016-10-10T07:20:10.596Z,20
2016-10-10T07:21:10.694Z,20
2016-10-10T07:22:10.748Z,20
2016-10-10T07:23:10.781Z,20
2016-10-10T07:24:10.832Z,20
2016-10-10T07:25:10.891Z,20
2016-10-10T07:26:10.972Z,20
2016-10-10T07:27:11.000Z,25
2016-10-10T07:28:11.083Z,25
2016-10-10T07:29:11.118Z,25
2016-10-10T07:30:11.156Z,25
2016-10-10T07:31:11.236Z,25
2016-10-10T07:32:11.273Z,25
2016-10-10T07:33:11.348Z,25
2016-10-10T07:34:11.374Z,25
2016-10-10T07:35:11.466Z,25
2016-10-10T07:36:11.709Z,25
2016-10-10T07:37:11.583Z,25
2016-10-10T07:38:11.917Z,25
2016-10-10T07:39:11.682Z,25
2016-10-10T07:40:11.750Z,25
2016-10-10T07:41:11.759Z,25
2016-10-10T07:42:11.861Z,25
2016-10-10T07:43:11.896Z,25
2016-10-10T07:44:11.958Z,25
2016-10-10T07:45:11.993Z,25
2016-10-10T07:46:12.048Z,30
2016-10-10T07:47:12.093Z,30
2016-10-10T07:48:12.188Z,30
2016-10-10T07:49:12.233Z,30
2016-10-10T07:50:12.287Z,30
2016-10-10T07:51:12.327Z,30
2016-10-10T07:52:12.377Z,30
2016-10-10T07:53:12.464Z,30
2016-10-10T07:54:12.514Z,30
2016-10-10T07:55:12.531Z,30
2016-10-10T07:56:12.607Z,30
2016-10-10T07:57:12.672Z,30
2016-10-10T07:58:12.724Z,30
2016-10-10T07:59:12.775Z,30
2016-10-10T08:00:12.830Z,30
2016-10-10T08:01:12.896Z,35
2016-10-10T08:02:12.953Z,35
2016-10-10T08:03:13.329Z,35
2016-10-10T08:04:13.080Z,35
2016-10-10T08:05:13.109Z,35
2016-10-10T08:06:13.183Z,35
2016-10-10T08:07:13.206Z,35
2016-10-10T08:08:13.278Z,35
2016-10-10T08:09:13.346Z,35
2016-10-10T08:10:13.407Z,40
2016-10-10T08:11:13.463Z,40
2016-10-10T08:12:13.499Z,40
2016-10-10T08:13:13.559Z,40
2016-10-10T08:14:13.597Z,40
2016-10-10T08:15:13.700Z,40
2016-10-10T08:16:13.733Z,40
2016-10-10T08:17:13.804Z,40
2016-10-10T08:18:13.819Z,40
2016-10-10T08:19:13.894Z,40
2016-10-10T08:20:13.951Z,40
2016-10-10T08:21:14.006Z,40
2016-10-10T08:22:14.047Z,40
2016-10-10T08:23:14.115Z,40
2016-10-10T08:24:14.190Z,40
2016-10-10T08:25:14.241Z,40
2016-10-10T08:26:14.311Z,40
2016-10-10T08:27:14.353Z,40
2016-10-10T08:28:14.412Z,40
2016-10-10T08:29:14.480Z,35
2016-10-10T08:30:14.496Z,40
2016-10-10T08:31:14.552Z,40
2016-10-10T08:32:14.632Z,40
2016-10-10T08:33:14.693Z,40
2016-10-10T08:34:14.735Z,40
2016-10-10T08:35:14.785Z,45
2016-10-10T08:36:14.869Z,45
2016-10-10T08:37:14.919Z,45
2016-10-10T08:38:14.945Z,45
2016-10-10T08:39:15.005Z,45
2016-10-10T08:40:15.065Z,45
2016-10-10T08:41:15.113Z,45
2016-10-10T08:42:15.168Z,40
2016-10-10T08:43:15.524Z,40
2016-10-10T08:44:15.296Z,45
2016-10-10T08:45:15.367Z,45
2016-10-10T08:46:15.396Z,45
2016-10-10T08:47:15.471Z,45
2016-10-10T08:48:15.512Z,45
2016-10-10T08:49:15.568Z,45
2016-10-10T08:50:15.633Z,45
2016-10-10T08:51:15.678Z,45
2016-10-10T08:52:15.711Z,45
2016-10-10T08:53:15.801Z,50
2016-10-10T08:54:15.939Z,50
2016-10-10T08:55:15.928Z,50
2016-10-10T08:56:15.929Z,50
2016-10-10T08:57:16.018Z,55
2016-10-10T08:58:16.063Z,60
2016-10-10T08:59:16.148Z,60
2016-10-10T09:00:16.164Z,55
2016-10-10T09:01:16.238Z,55
2016-10-10T09:02:16.287Z,50
2016-10-10T09:03:16.352Z,50
2016-10-10T09:04:16.415Z,55
2016-10-10T09:05:16.461Z,55
2016-10-10T09:06:16.535Z,55
2016-10-10T09:07:16.584Z,60
2016-10-10T09:08:16.627Z,60
2016-10-10T09:09:16.683Z,65
2016-10-10T09:10:16.755Z,60
2016-10-10T09:11:16.788Z,60
2016-10-10T09:12:16.864Z,60
2016-10-10T09:13:16.921Z,60
2016-10-10T09:14:16.945Z,65
2016-10-10T09:15:17.022Z,60
2016-10-10T09:16:17.102Z,55
2016-10-10T09:17:17.154Z,55
2016-10-10T09:18:17.193Z,50
2016-10-10T09:19:17.262Z,50
2016-10-10T09:20:17.325Z,55
2016-10-10T09:21:17.362Z,55
2016-10-10T09:22:17.414Z,60
2016-10-10T09:23:17.483Z,65
2016-10-10T09:24:17.521Z,65
2016-10-10T09:25:17.581Z,65
2016-10-10T09:26:17.626Z,55
2016-10-10T09:27:17.699Z,55
2016-10-10T09:28:17.764Z,55
2016-10-10T09:29:17.808Z,55
2016-10-10T09:30:17.863Z,60
2016-10-10T09:31:17.912Z,60
2016-10-10T09:32:17.973Z,65
2016-10-10T09:33:18.024Z,65
2016-10-10T09:34:18.076Z,60
2016-10-10T09:35:18.116Z,55
2016-10-10T09:36:18.204Z,55
2016-10-10T09:37:18.252Z,55
2016-10-10T09:38:18.417Z,60
2016-10-10T09:39:18.351Z,70
2016-10-10T09:40:18.408Z,90
2016-10-10T09:41:18.454Z,105
2016-10-10T09:42:18.519Z,85
2016-10-10T09:43:18.585Z,75
2016-10-10T09:44:18.631Z,70
2016-10-10T09:45:18.715Z,65
2016-10-10T09:46:18.765Z,60
2016-10-10T09:47:18.836Z,55
2016-10-10T09:48:19.042Z,50
2016-10-10T09:49:18.931Z,55
2016-10-10T09:50:18.978Z,60
2016-10-10T09:51:19.010Z,65
2016-10-10T09:52:19.103Z,65
2016-10-10T09:53:19.154Z,70
2016-10-10T09:54:19.233Z,75
2016-10-10T09:55:19.246Z,75
2016-10-10T09:56:19.299Z,75
2016-10-10T09:57:19.395Z,65
2016-10-10T09:58:19.428Z,60
2016-10-10T09:59:19.472Z,55
2016-10-10T10:00:19.556Z,50
2016-10-10T10:01:19.597Z,50
2016-10-10T10:02:19.951Z,55
2016-10-10T10:03:19.730Z,60
2016-10-10T10:04:19.759Z,70
2016-10-10T10:05:19.821Z,80
2016-10-10T10:06:19.870Z,85
2016-10-10T10:07:19.908Z,95
2016-10-10T10:08:19.977Z,85
2016-10-10T10:09:20.029Z,80
2016-10-10T10:10:20.084Z,70
2016-10-10T10:11:20.177Z,60
2016-10-10T10:12:20.219Z,60
2016-10-10T10:13:20.260Z,60
2016-10-10T10:14:20.330Z,65
2016-10-10T10:15:20.381Z,70
2016-10-10T10:16:20.436Z,75
2016-10-10T10:17:20.494Z,85
2016-10-10T10:18:20.538Z,85
2016-10-10T10:19:20.599Z,80
2016-10-10T10:20:20.662Z,75
2016-10-10T10:21:20.736Z,75
2016-10-10T10:22:20.781Z,70
2016-10-10T10:23:21.443Z,75
2016-10-10T10:24:21.536Z,80
2016-10-10T10:25:21.564Z,80
2016-10-10T10:26:21.337Z,95
2016-10-10T10:27:21.715Z,90
2016-10-10T10:28:21.758Z,90
2016-10-10T10:29:21.559Z,85
2016-10-10T10:30:21.585Z,95
2016-10-10T10:31:22.273Z,90
2016-10-10T10:32:21.689Z,125
2016-10-10T10:33:22.027Z,110
2016-10-10T10:34:22.435Z,85
2016-10-10T10:35:21.807Z,75
2016-10-10T10:36:21.579Z,75
2016-10-10T10:37:22.255Z,65
2016-10-10T10:38:22.027Z,60
2016-10-10T10:39:22.251Z,65
2016-10-10T10:40:22.087Z,75
2016-10-10T10:41:22.175Z,75
2016-10-10T10:42:22.210Z,80
2016-10-10T10:43:22.286Z,70
2016-10-10T10:44:23.004Z,70
2016-10-10T10:45:22.683Z,70
2016-10-10T10:46:22.735Z,60
2016-10-10T10:47:22.513Z,55
2016-10-10T10:48:22.235Z,55
2016-10-10T10:49:22.669Z,55
2016-10-10T10:50:22.352Z,55
2016-10-10T10:51:23.028Z,55
2016-10-10T10:52:22.447Z,60
2016-10-10T10:53:22.535Z,60
2016-10-10T10:54:23.181Z,60
2016-10-10T10:55:22.962Z,60
2016-10-10T10:56:23.018Z,60
2016-10-10T10:57:23.258Z,60
2016-10-10T10:58:22.794Z,60
2016-10-10T10:59:23.164Z,60
2016-10-10T11:00:23.547Z,60
2016-10-10T11:01:22.986Z,60
2016-10-10T11:02:23.627Z,60
2016-10-10T11:03:23.411Z,55
2016-10-10T11:04:23.798Z,55
2016-10-10T11:05:23.809Z,50
2016-10-10T11:06:23.276Z,50
2016-10-10T11:07:23.940Z,50
2016-10-10T11:08:23.332Z,55
2016-10-10T11:09:24.354Z,55
2016-10-10T11:10:23.788Z,55
2016-10-10T11:11:23.822Z,55
2016-10-10T11:12:24.175Z,55
2016-10-10T11:13:24.236Z,55
2016-10-10T11:14:24.670Z,55
2016-10-10T11:15:24.388Z,55
2016-10-10T11:16:24.423Z,55
2016-10-10T11:17:24.844Z,55
2016-10-10T11:18:24.213Z,55
2016-10-10T11:19:24.629Z,50
2016-10-10T11:20:24.278Z,50
2016-10-10T11:21:24.694Z,45
2016-10-10T11:22:24.172Z,45
2016-10-10T11:23:24.543Z,45
2016-10-10T11:24:24.871Z,45
2016-10-10T11:25:24.692Z,45
2016-10-10T11:26:24.702Z,45
2016-10-10T11:27:25.054Z,45
2016-10-10T11:28:25.139Z,45
2016-10-10T11:29:25.175Z,45
2016-10-10T11:30:24.604Z,45
2016-10-10T11:31:25.273Z,45
2016-10-10T11:32:25.040Z,45
2016-10-10T11:33:25.383Z,45
2016-10-10T11:34:25.467Z,45
2016-10-10T11:35:25.828Z,45
2016-10-10T11:36:25.265Z,45
2016-10-10T11:37:24.994Z,45
2016-10-10T11:38:25.441Z,45
2016-10-10T11:39:25.731Z,45
2016-10-10T11:40:25.154Z,45
2016-10-10T11:41:25.528Z,45
2016-10-10T11:42:25.911Z,45
2016-10-10T11:43:25.645Z,45
2016-10-10T11:44:25.992Z,45
2016-10-10T11:45:26.622Z,45
2016-10-10T11:46:25.829Z,50
2016-10-10T11:47:25.598Z,50
2016-10-10T11:48:26.238Z,45
2016-10-10T11:49:26.611Z,45
2016-10-10T11:50:26.122Z,45
2016-10-10T11:51:26.379Z,45
2016-10-10T11:52:26.172Z,40
2016-10-10T11:53:25.917Z,40
2016-10-10T11:54:26.599Z,40
2016-10-10T11:55:26.948Z,40
2016-10-10T11:56:26.391Z,35
2016-10-10T11:57:26.774Z,35
2016-10-10T11:58:26.504Z,35
2016-10-10T11:59:27.142Z,35
2016-10-10T12:00:26.875Z,35
2016-10-10T12:01:26.329Z,35
2016-10-10T12:02:26.713Z,35
2016-10-10T12:03:26.746Z,35
2016-10-10T12:04:27.199Z,35
2016-10-10T12:05:27.502Z,35
2016-10-10T12:06:27.610Z,35
2016-10-10T12:07:27.016Z,35
2016-10-10T12:08:27.353Z,35
2016-10-10T12:09:27.077Z,35
2016-10-10T12:10:27.524Z,35
2016-10-10T12:11:26.961Z,35
2016-10-10T12:12:27.603Z,35
2016-10-10T12:13:27.959Z,35
2016-10-10T12:14:27.389Z,35
2016-10-10T12:15:27.760Z,35
2016-10-10T12:16:27.828Z,35
2016-10-10T12:17:27.267Z,35
2016-10-10T12:18:27.327Z,35
2016-10-10T12:19:27.971Z,35
2016-10-10T12:20:28.051Z,35
2016-10-10T12:21:27.456Z,35
2016-10-10T12:22:28.137Z,35
2016-10-10T12:23:28.484Z,35
2016-10-10T12:24:27.952Z,35
2016-10-10T12:25:28.007Z,40
2016-10-10T12:26:28.400Z,40
2016-10-10T12:27:27.799Z,40
2016-10-10T12:28:28.464Z,40
2016-10-10T12:29:28.211Z,40
2016-10-10T12:30:28.576Z,40
2016-10-10T12:31:28.661Z,40
2016-10-10T12:32:28.065Z,40
2016-10-10T12:33:28.428Z,40
2016-10-10T12:34:28.203Z,45
2016-10-10T12:35:28.550Z,45
2016-10-10T12:36:28.314Z,45
2016-10-10T12:37:28.328Z,45
2016-10-10T12:38:28.428Z,45
2016-10-10T12:39:28.458Z,40
2016-10-10T12:40:28.843Z,40
2016-10-10T12:41:29.585Z,40
2016-10-10T12:42:28.627Z,40
2016-10-10T12:43:28.682Z,35
2016-10-10T12:44:29.037Z,35
2016-10-10T12:45:29.430Z,35
2016-10-10T12:46:29.457Z,40
2016-10-10T12:47:29.578Z,40
2016-10-10T12:48:28.977Z,35
2016-10-10T12:49:29.683Z,35
2016-10-10T12:50:30.021Z,35
2016-10-10T12:51:29.163Z,35
2016-10-10T12:52:29.479Z,35
2016-10-10T12:53:29.561Z,35
2016-10-10T12:54:29.337Z,35
2016-10-10T12:55:29.637Z,35
2016-10-10T12:56:30.051Z,35
2016-10-10T12:57:29.815Z,35
2016-10-10T12:58:29.864Z,35
2016-10-10T12:59:29.910Z,35
2016-10-10T13:00:29.643Z,35
2016-10-10T13:01:30.287Z,35
2016-10-10T13:02:30.067Z,35
2016-10-10T13:03:30.452Z,35
2016-10-10T13:04:30.187Z,35
2016-10-10T13:05:29.946Z,35
2016-10-10T13:06:29.988Z,40
2016-10-10T13:07:30.369Z,35
2016-10-10T13:08:30.380Z,35
2016-10-10T13:09:30.182Z,35
2016-10-10T13:10:30.181Z,35
2016-10-10T13:11:30.249Z,40
2016-10-10T13:12:30.296Z,35
2016-10-10T13:13:30.388Z,35
2016-10-10T13:14:30.430Z,35
2016-10-10T13:15:30.473Z,35
2016-10-10T13:16:30.528Z,35
2016-10-10T13:17:30.569Z,35
2016-10-10T13:18:30.653Z,35
2016-10-10T13:19:30.687Z,35
2016-10-10T13:20:30.783Z,35
2016-10-10T13:21:30.823Z,35
2016-10-10T13:22:30.861Z,35
2016-10-10T13:23:30.913Z,30
2016-10-10T13:24:31.306Z,30
2016-10-10T13:25:31.047Z,35
2016-10-10T13:26:31.457Z,35
2016-10-10T13:27:31.169Z,35
2016-10-10T13:28:31.539Z,35
2016-10-10T13:29:31.272Z,35
2016-10-10T13:30:32.297Z,35
2016-10-10T13:31:31.705Z,35
2016-10-10T13:32:31.996Z,35
2016-10-10T13:33:31.782Z,35
2016-10-10T13:34:31.900Z,35
2016-10-10T13:35:32.224Z,35
2016-10-10T13:36:31.966Z,35
2016-10-10T13:37:31.822Z,35
2016-10-10T13:38:32.102Z,35
2016-10-10T13:39:32.140Z,35
2016-10-10T13:40:32.225Z,35
2016-10-10T13:41:31.969Z,35
2016-10-10T13:42:32.369Z,35
2016-10-10T13:43:32.397Z,35
2016-10-10T13:44:32.445Z,30
2016-10-10T13:45:32.534Z,30
2016-10-10T13:46:32.227Z,30
2016-10-10T13:47:32.902Z,30
2016-10-10T13:48:32.952Z,30
2016-10-10T13:49:33.035Z,30
2016-10-10T13:50:33.085Z,30
2016-10-10T13:51:32.823Z,30
2016-10-10T13:52:33.718Z,30
2016-10-10T13:53:32.938Z,30
2016-10-10T13:54:32.977Z,30
2016-10-10T13:55:32.738Z,30
2016-10-10T13:56:33.418Z,30
2016-10-10T13:57:32.861Z,25
2016-10-10T13:58:32.903Z,25
2016-10-10T13:59:33.265Z,25
2016-10-10T14:00:33.351Z,25
2016-10-10T14:01:33.686Z,25
2016-10-10T14:02:33.760Z,25
2016-10-10T14:03:33.781Z,25
2016-10-10T14:04:33.520Z,25
2016-10-10T14:05:33.533Z,25
2016-10-10T14:06:33.960Z,25
2016-10-10T14:07:33.750Z,20
2016-10-10T14:08:33.486Z,20
2016-10-10T14:09:33.867Z,20
2016-10-10T14:10:34.208Z,20
2016-10-10T14:11:33.948Z,20
2016-10-10T14:12:34.006Z,20
2016-10-10T14:13:34.647Z,20
2016-10-10T14:14:34.741Z,20
2016-10-10T14:15:34.818Z,20
2016-10-10T14:16:34.559Z,20
2016-10-10T14:17:34.295Z,20
2016-10-10T14:18:34.354Z,20
2016-10-10T14:19:34.391Z,15
2016-10-10T14:20:34.674Z,15
2016-10-10T14:21:34.212Z,15
2016-10-10T14:22:34.539Z,15
2016-10-10T14:23:34.632Z,15
2016-10-10T14:24:34.673Z,15
2016-10-10T14:25:34.744Z,15
2016-10-10T14:26:34.760Z,15
2016-10-10T14:27:34.837Z,15
2016-10-10T14:28:34.890Z,15
2016-10-10T14:29:34.939Z,15
2016-10-10T14:30:34.987Z,15